Time;durP1;ratioP1;P1;durP2;ratioP2;P2;SDS_P1;SDS_P2;PMS_P1;PMS_P2;Temp;Humidity;BMP_temperature;BMP_pressure;BME280_temperature;BME280_humidity;BME280_pressure;Samples;Min_cycle;Max_cycle;Signal;HPM_P1;HPM_P2
2023/06/13 00:02:24;;;;;;;3.90;3.10;;;18.70;65.10;;;;;;5114442;28;20676;-58
2023/06/13 00:04:52;;;;;;;4.35;3.20;;;18.60;65.20;;;;;;5114403;28;20207;-58
2023/06/13 00:07:19;;;;;;;4.90;3.17;;;18.60;65.40;;;;;;5114183;28;20234;-58
2023/06/13 00:09:46;;;;;;;3.58;2.78;;;18.50;65.70;;;;;;5114286;28;20763;-58
2023/06/13 00:12:13;;;;;;;4.72;3.00;;;18.50;66.00;;;;;;5114204;28;20533;-58
2023/06/13 00:14:39;;;;;;;4.25;3.05;;;18.40;66.20;;;;;;5114249;28;20572;-58
2023/06/13 00:17:07;;;;;;;3.47;3.10;;;18.40;66.30;;;;;;5113949;28;20676;-57
2023/06/13 00:19:33;;;;;;;5.20;3.15;;;18.50;66.30;;;;;;5114035;28;20246;-58
2023/06/13 00:22:02;;;;;;;4.03;3.08;;;18.40;66.60;;;;;;5114897;28;20204;-57
2023/06/13 00:24:29;;;;;;;4.25;3.10;;;18.30;67.10;;;;;;5114837;28;20658;-57
2023/06/13 00:26:56;;;;;;;3.42;2.90;;;18.10;67.50;;;;;;5114647;28;20210;-58
2023/06/13 00:29:23;;;;;;;3.38;2.75;;;18.10;67.80;;;;;;5114799;28;20607;-58
2023/06/13 00:31:49;;;;;;;3.35;3.05;;;18.10;68.10;;;;;;5113975;28;20562;-58
2023/06/13 00:34:16;;;;;;;4.00;2.90;;;18.00;68.30;;;;;;5114337;28;20564;-58
2023/06/13 00:36:43;;;;;;;4.65;3.08;;;18.00;68.40;;;;;;5113853;28;20261;-60
2023/06/13 00:39:12;;;;;;;3.55;2.70;;;17.90;68.60;;;;;;5113848;28;20199;-60
2023/06/13 00:41:38;;;;;;;3.78;3.10;;;17.90;68.80;;;;;;5113786;28;20265;-59
2023/06/13 00:44:07;;;;;;;4.30;2.72;;;17.90;69.20;;;;;;5113857;28;20204;-58
2023/06/13 00:46:35;;;;;;;5.30;2.70;;;17.90;69.20;;;;;;5113517;28;20204;-57
2023/06/13 00:49:03;;;;;;;3.20;2.90;;;17.90;69.20;;;;;;5113678;28;20227;-58
2023/06/13 00:51:31;;;;;;;4.63;2.80;;;17.80;69.40;;;;;;5113581;28;20230;-58
2023/06/13 00:54:01;;;;;;;3.55;2.78;;;17.80;69.60;;;;;;5113434;28;20206;-57
2023/06/13 00:56:30;;;;;;;5.25;2.97;;;17.80;69.90;;;;;;5113214;28;20207;-58
2023/06/13 00:58:59;;;;;;;3.92;2.88;;;17.70;70.30;;;;;;5113544;28;20199;-60
2023/06/13 01:01:27;;;;;;;4.05;3.10;;;17.70;70.30;;;;;;5113313;28;20413;-60
2023/06/13 01:03:55;;;;;;;5.32;2.80;;;17.70;70.50;;;;;;5113125;28;20673;-60
2023/06/13 01:06:24;;;;;;;4.10;2.65;;;17.70;70.50;;;;;;5113006;28;20250;-58
2023/06/13 01:08:52;;;;;;;3.00;2.65;;;17.70;70.90;;;;;;5113033;28;20692;-58
2023/06/13 01:11:25;;;;;;;4.25;3.00;;;17.60;71.00;;;;;;5112836;28;20228;-58
2023/06/13 01:14:00;;;;;;;8.45;3.10;;;17.60;71.10;;;;;;5113237;28;20216;-58
2023/06/13 01:16:34;;;;;;;3.13;2.65;;;17.60;71.40;;;;;;5112611;28;20582;-58
2023/06/13 01:19:04;;;;;;;6.25;2.72;;;17.40;71.90;;;;;;5112920;28;20237;-58
2023/06/13 01:21:32;;;;;;;4.30;3.00;;;17.30;72.40;;;;;;5106527;22;20330;-61
2023/06/13 01:24:03;;;;;;;3.97;2.80;;;17.20;72.40;;;;;;5087602;28;20563;-60
2023/06/13 01:26:50;;;;;;;4.43;2.95;;;17.20;73.00;;;;;;5094408;28;20208;-61
2023/06/13 01:29:18;;;;;;;3.42;2.70;;;17.10;73.30;;;;;;5094337;28;20227;-60
2023/06/13 01:31:47;;;;;;;7.22;3.30;;;17.00;73.70;;;;;;5094264;28;20247;-61
2023/06/13 01:34:15;;;;;;;6.55;2.88;;;17.00;73.80;;;;;;5094146;28;20205;-61
2023/06/13 01:36:42;;;;;;;3.67;2.92;;;17.10;73.60;;;;;;5093999;28;20204;-61
2023/06/13 01:39:09;;;;;;;4.07;2.90;;;17.10;73.60;;;;;;5093962;28;20602;-61
2023/06/13 01:41:37;;;;;;;3.28;2.85;;;17.10;73.90;;;;;;5094443;28;20236;-61
2023/06/13 01:44:07;;;;;;;5.32;2.88;;;17.10;73.90;;;;;;5093579;28;20208;-61
2023/06/13 01:46:43;;;;;;;3.65;2.95;;;17.10;74.40;;;;;;5094076;28;20200;-60
2023/06/13 01:49:18;;;;;;;5.65;3.05;;;17.00;75.40;;;;;;5094465;28;20224;-60
2023/06/13 01:51:52;;;;;;;3.83;2.78;;;16.90;75.20;;;;;;5094213;28;20280;-61
2023/06/13 01:54:23;;;;;;;4.63;2.90;;;16.90;75.10;;;;;;5094359;28;20204;-62
2023/06/13 01:56:54;;;;;;;6.03;2.90;;;16.90;75.50;;;;;;5093936;28;20234;-61
2023/06/13 01:59:26;;;;;;;4.07;2.72;;;16.90;75.80;;;;;;5093984;28;20211;-61
2023/06/13 02:01:54;;;;;;;5.57;2.72;;;16.80;76.30;;;;;;5094301;28;20310;-62
2023/06/13 02:04:21;;;;;;;6.82;2.97;;;16.60;77.00;;;;;;5093745;28;20215;-62
2023/06/13 02:06:48;;;;;;;4.15;3.00;;;16.60;77.40;;;;;;5093726;28;20211;-60
2023/06/13 02:09:15;;;;;;;5.18;2.92;;;16.40;78.30;;;;;;5093600;28;20216;-61
2023/06/13 02:11:42;;;;;;;5.38;2.78;;;16.40;78.60;;;;;;5093086;28;20251;-62
2023/06/13 02:14:08;;;;;;;4.40;3.10;;;16.40;78.80;;;;;;5094148;28;20208;-63
2023/06/13 02:16:39;;;;;;;4.00;2.97;;;16.30;79.30;;;;;;5093270;28;20208;-62
2023/06/13 02:19:07;;;;;;;4.53;3.03;;;16.20;79.70;;;;;;5093881;28;20291;-61
2023/06/13 02:21:34;;;;;;;3.53;2.70;;;16.20;80.10;;;;;;5093683;28;20232;-61
2023/06/13 02:24:01;;;;;;;3.10;2.78;;;16.20;80.50;;;;;;5094131;28;20246;-61
2023/06/13 02:26:28;;;;;;;3.28;2.70;;;16.20;80.60;;;;;;5093689;28;20205;-61
2023/06/13 02:28:56;;;;;;;3.63;2.53;;;16.20;80.80;;;;;;5094057;28;20262;-61
2023/06/13 02:31:23;;;;;;;6.10;2.63;;;16.10;81.10;;;;;;5094416;28;20272;-61
2023/06/13 02:33:51;;;;;;;9.55;2.83;;;16.00;81.60;;;;;;5094040;28;20209;-61
2023/06/13 02:36:18;;;;;;;6.43;3.05;;;16.00;82.20;;;;;;5093782;28;20207;-61
2023/06/13 02:38:45;;;;;;;4.38;2.67;;;15.90;82.30;;;;;;5093990;28;20620;-61
2023/06/13 02:41:12;;;;;;;2.92;2.60;;;16.00;82.40;;;;;;5094419;28;20636;-61
2023/06/13 02:43:39;;;;;;;5.47;2.92;;;15.90;82.40;;;;;;5094048;28;20224;-61
2023/06/13 02:46:06;;;;;;;3.10;2.75;;;16.00;82.50;;;;;;5093403;28;20212;-61
2023/06/13 02:48:33;;;;;;;5.30;2.72;;;15.90;83.10;;;;;;5093534;28;20216;-61
2023/06/13 02:51:02;;;;;;;4.15;2.42;;;16.00;83.10;;;;;;5093439;28;20337;-61
2023/06/13 02:53:28;;;;;;;5.28;3.05;;;15.90;83.40;;;;;;5093648;28;20241;-61
2023/06/13 02:55:55;;;;;;;4.50;2.70;;;15.90;83.60;;;;;;5095777;28;20204;-61
2023/06/13 02:58:22;;;;;;;5.50;2.85;;;15.90;83.90;;;;;;5097779;28;20204;-61
2023/06/13 03:00:49;;;;;;;5.82;2.60;;;15.90;83.90;;;;;;5097889;28;20220;-60
2023/06/13 03:03:18;;;;;;;4.47;2.67;;;15.90;84.00;;;;;;5098192;28;20576;-60
2023/06/13 03:05:47;;;;;;;4.30;2.80;;;15.80;84.20;;;;;;5097401;28;20208;-61
2023/06/13 03:08:18;;;;;;;3.70;2.75;;;15.80;84.20;;;;;;5097260;28;20607;-60
2023/06/13 03:10:44;;;;;;;3.97;2.70;;;15.80;84.90;;;;;;5097520;28;20224;-60
2023/06/13 03:13:11;;;;;;;3.90;2.75;;;15.70;85.20;;;;;;5096680;28;20208;-61
2023/06/13 03:15:38;;;;;;;5.32;3.28;;;15.70;85.60;;;;;;5096854;28;20207;-61
2023/06/13 03:18:05;;;;;;;4.50;2.37;;;15.70;85.80;;;;;;5096469;28;20204;-60
2023/06/13 03:20:33;;;;;;;6.05;2.40;;;15.60;85.90;;;;;;5096144;28;20232;-61
2023/06/13 03:22:59;;;;;;;5.82;3.00;;;15.60;86.20;;;;;;5096552;28;20311;-61
2023/06/13 03:25:27;;;;;;;5.63;2.58;;;15.60;86.20;;;;;;5096101;28;20700;-61
2023/06/13 03:27:54;;;;;;;3.83;3.05;;;15.60;86.40;;;;;;5096543;28;20208;-61
2023/06/13 03:30:21;;;;;;;11.40;4.82;;;15.70;86.40;;;;;;5096298;28;20259;-60
2023/06/13 03:32:48;;;;;;;6.57;3.53;;;15.80;86.70;;;;;;5096451;28;20204;-61
2023/06/13 03:35:14;;;;;;;12.60;4.97;;;15.80;86.80;;;;;;5096380;28;20211;-60
2023/06/13 03:37:41;;;;;;;4.20;2.93;;;15.80;86.80;;;;;;5096327;28;20208;-60
2023/06/13 03:40:09;;;;;;;3.75;2.88;;;15.80;86.80;;;;;;5096979;28;20227;-60
2023/06/13 03:42:37;;;;;;;5.05;2.50;;;15.80;86.70;;;;;;5096580;28;20764;-59
2023/06/13 03:45:04;;;;;;;4.40;3.00;;;15.80;86.70;;;;;;5096780;28;20550;-60
2023/06/13 03:47:31;;;;;;;6.30;2.88;;;15.80;87.30;;;;;;5096416;28;20205;-60
2023/06/13 03:49:58;;;;;;;3.53;2.55;;;15.70;87.60;;;;;;5096977;28;20239;-60
2023/06/13 03:52:24;;;;;;;5.43;3.13;;;15.60;88.10;;;;;;5097410;28;20545;-61
2023/06/13 03:54:52;;;;;;;3.00;2.70;;;15.60;88.50;;;;;;5096973;28;20211;-60
2023/06/13 03:57:19;;;;;;;4.38;2.65;;;15.60;88.60;;;;;;5096551;28;20576;-60
2023/06/13 03:59:47;;;;;;;5.13;2.93;;;15.70;88.50;;;;;;5096990;28;20204;-60
2023/06/13 04:02:13;;;;;;;4.45;3.20;;;15.70;88.30;;;;;;5096995;28;20212;-60
2023/06/13 04:04:42;;;;;;;4.35;3.30;;;15.60;88.70;;;;;;5097301;28;20200;-61
2023/06/13 04:07:10;;;;;;;5.63;3.00;;;15.70;88.90;;;;;;5095754;28;20215;-61
2023/06/13 04:09:36;;;;;;;7.38;2.92;;;15.70;88.80;;;;;;5096808;28;20356;-61
2023/06/13 04:12:03;;;;;;;4.35;2.72;;;15.80;88.60;;;;;;5095818;28;20205;-61
2023/06/13 04:14:30;;;;;;;5.32;3.10;;;15.90;88.60;;;;;;5096106;28;20554;-60
2023/06/13 04:16:59;;;;;;;4.70;2.85;;;15.90;88.20;;;;;;5096375;28;20216;-60
2023/06/13 04:19:26;;;;;;;3.40;2.70;;;16.00;88.20;;;;;;5097874;28;20295;-60
2023/06/13 04:21:53;;;;;;;3.47;2.47;;;16.00;88.00;;;;;;5098018;28;20713;-60
2023/06/13 04:24:20;;;;;;;7.45;3.05;;;16.10;88.00;;;;;;5099238;28;20249;-60
2023/06/13 04:26:47;;;;;;;4.43;2.60;;;16.20;88.00;;;;;;5095736;28;20208;-61
2023/06/13 04:29:15;;;;;;;5.25;2.78;;;16.20;88.00;;;;;;5095688;28;20250;-60
2023/06/13 04:31:42;;;;;;;6.05;2.90;;;16.30;87.80;;;;;;5095125;28;20585;-61
2023/06/13 04:34:11;;;;;;;7.18;3.22;;;16.30;87.60;;;;;;5095361;28;20211;-60
2023/06/13 04:36:41;;;;;;;5.50;2.78;;;16.40;87.40;;;;;;5094363;28;20204;-60
2023/06/13 04:39:08;;;;;;;5.13;2.70;;;16.40;87.20;;;;;;5094526;28;20204;-61
2023/06/13 04:41:37;;;;;;;5.88;2.67;;;16.50;86.50;;;;;;5095051;28;20619;-60
2023/06/13 04:44:05;;;;;;;4.57;2.40;;;16.70;86.20;;;;;;5094923;28;20251;-61
2023/06/13 04:46:32;;;;;;;5.95;2.85;;;17.10;84.80;;;;;;5094789;28;20208;-61
2023/06/13 04:49:00;;;;;;;4.95;2.30;;;18.30;82.40;;;;;;5094399;28;20692;-60
2023/06/13 04:51:30;;;;;;;4.22;2.00;;;20.20;77.50;;;;;;5093908;28;20263;-61
2023/06/13 04:53:58;;;;;;;6.00;2.30;;;22.30;70.60;;;;;;5094286;28;20296;-61
2023/06/13 04:56:25;;;;;;;4.57;2.63;;;24.20;65.10;;;;;;5093766;28;20231;-61
2023/06/13 04:58:52;;;;;;;3.67;2.03;;;25.70;60.80;;;;;;5094187;28;20243;-61
2023/06/13 05:01:19;;;;;;;2.67;2.13;;;27.10;57.40;;;;;;5095001;28;20323;-61
2023/06/13 05:03:46;;;;;;;3.67;2.50;;;28.30;54.10;;;;;;5095122;28;20591;-61
2023/06/13 05:06:13;;;;;;;3.80;2.35;;;29.30;51.90;;;;;;5094787;28;20640;-61
2023/06/13 05:08:41;;;;;;;6.00;2.10;;;30.10;49.90;;;;;;5094942;28;20287;-61
2023/06/13 05:11:08;;;;;;;4.85;2.50;;;30.80;48.60;;;;;;5094292;28;20281;-61
2023/06/13 05:13:34;;;;;;;2.40;2.20;;;31.50;47.50;;;;;;5094588;28;20712;-62
2023/06/13 05:16:01;;;;;;;4.43;2.30;;;31.80;45.60;;;;;;5094343;28;20211;-62
2023/06/13 05:18:29;;;;;;;2.30;1.80;;;31.70;45.20;;;;;;5093829;28;20204;-62
2023/06/13 05:20:57;;;;;;;2.65;2.28;;;31.60;44.50;;;;;;5094184;28;20236;-62
2023/06/13 05:23:24;;;;;;;2.85;2.13;;;31.60;44.10;;;;;;5094534;28;20661;-62
2023/06/13 05:25:52;;;;;;;5.90;2.30;;;31.70;43.90;;;;;;5094011;28;20200;-64
2023/06/13 05:28:19;;;;;;;2.50;2.00;;;31.80;43.30;;;;;;5094907;28;20692;-61
2023/06/13 05:30:46;;;;;;;4.00;2.10;;;31.90;43.90;;;;;;5094505;28;20716;-62
2023/06/13 05:33:15;;;;;;;2.78;2.03;;;32.40;42.40;;;;;;5094761;28;20685;-62
2023/06/13 05:35:42;;;;;;;6.80;2.20;;;32.30;42.20;;;;;;5094545;28;20574;-62
2023/06/13 05:38:11;;;;;;;5.20;2.72;;;32.20;42.60;;;;;;5094344;28;20223;-62
2023/06/13 05:40:37;;;;;;;2.95;2.10;;;32.70;41.90;;;;;;5095429;28;20701;-62
2023/06/13 05:43:06;;;;;;;3.88;2.38;;;33.40;41.20;;;;;;5094744;28;20208;-62
2023/06/13 05:45:32;;;;;;;4.93;2.38;;;33.90;40.20;;;;;;5094559;28;20208;-63
2023/06/13 05:47:59;;;;;;;3.83;2.28;;;33.90;39.70;;;;;;5094188;28;20214;-62
2023/06/13 05:50:26;;;;;;;3.45;2.33;;;33.70;39.50;;;;;;5094213;28;20251;-63
2023/06/13 05:52:52;;;;;;;3.53;2.00;;;33.70;39.80;;;;;;5094435;28;20238;-62
2023/06/13 05:55:19;;;;;;;4.45;2.38;;;33.70;39.20;;;;;;5094612;28;20265;-62
2023/06/13 05:57:46;;;;;;;6.47;1.85;;;33.70;39.30;;;;;;5094220;28;20215;-62
2023/06/13 06:00:15;;;;;;;3.95;2.13;;;33.60;39.20;;;;;;5094357;28;20254;-62
2023/06/13 06:02:43;;;;;;;5.88;2.22;;;33.80;38.80;;;;;;5094356;28;20219;-62
2023/06/13 06:05:11;;;;;;;3.97;2.30;;;33.50;39.00;;;;;;5094242;28;20212;-62
2023/06/13 06:07:37;;;;;;;4.32;2.10;;;32.90;39.30;;;;;;5093996;28;20210;-62
2023/06/13 06:10:05;;;;;;;2.80;2.10;;;32.50;39.70;;;;;;5094629;28;20701;-62
2023/06/13 06:12:32;;;;;;;6.13;2.40;;;32.30;39.70;;;;;;5093965;28;20238;-62
2023/06/13 06:14:58;;;;;;;2.65;2.00;;;32.50;39.40;;;;;;5094065;28;20208;-62
2023/06/13 06:17:26;;;;;;;8.43;2.50;;;32.70;39.20;;;;;;5093956;28;20204;-62
2023/06/13 06:19:54;;;;;;;3.85;2.20;;;32.40;39.00;;;;;;5093173;28;20235;-65
2023/06/13 06:22:20;;;;;;;4.20;2.03;;;32.10;39.40;;;;;;5088275;28;20230;-59
2023/06/13 06:24:47;;;;;;;8.23;2.55;;;31.70;40.10;;;;;;5093502;28;20265;-63
2023/06/13 06:27:14;;;;;;;3.60;2.30;;;32.00;39.40;;;;;;5092991;28;20211;-61
2023/06/13 06:29:42;;;;;;;5.75;2.25;;;32.60;38.90;;;;;;5093123;28;20231;-64
2023/06/13 06:32:09;;;;;;;2.97;2.20;;;33.00;38.70;;;;;;5096935;28;20234;-63
2023/06/13 06:34:37;;;;;;;2.83;2.40;;;33.60;37.90;;;;;;5097089;28;20192;-61
2023/06/13 06:37:05;;;;;;;3.55;1.95;;;34.30;37.70;;;;;;5096126;28;20310;-63
2023/06/13 06:39:32;;;;;;;2.53;2.20;;;34.70;36.20;;;;;;5096423;28;20493;-57
2023/06/13 06:41:59;;;;;;;4.15;2.30;;;34.70;36.30;;;;;;5095974;28;20234;-58
2023/06/13 06:44:26;;;;;;;4.30;2.05;;;34.80;36.00;;;;;;5095480;28;20208;-58
2023/06/13 06:46:53;;;;;;;2.45;1.98;;;35.00;36.00;;;;;;5095047;28;20219;-58
2023/06/13 06:49:20;;;;;;;7.88;2.65;;;35.00;36.00;;;;;;5095971;28;20216;-57
2023/06/13 06:51:48;;;;;;;4.30;2.10;;;35.40;36.00;;;;;;5095621;28;20257;-57
2023/06/13 06:54:15;;;;;;;2.75;2.00;;;36.30;34.90;;;;;;5095585;28;20269;-58
2023/06/13 06:56:42;;;;;;;5.60;2.20;;;36.70;33.90;;;;;;5094822;28;20429;-58
2023/06/13 06:59:08;;;;;;;4.00;2.00;;;37.30;33.70;;;;;;5095341;28;20212;-57
2023/06/13 07:01:35;;;;;;;2.97;2.13;;;37.10;33.20;;;;;;5095679;28;20220;-64
2023/06/13 07:04:03;;;;;;;3.83;2.05;;;36.60;32.70;;;;;;5095935;28;20212;-57
2023/06/13 07:06:30;;;;;;;5.13;2.20;;;35.40;34.30;;;;;;5095106;28;20261;-57
2023/06/13 07:08:58;;;;;;;4.80;1.75;;;34.50;34.50;;;;;;5095215;28;20642;-57
2023/06/13 07:11:25;;;;;;;5.55;2.22;;;34.40;34.20;;;;;;5095657;28;20242;-57
2023/06/13 07:13:52;;;;;;;3.72;2.35;;;34.30;34.30;;;;;;5095247;28;20215;-57
2023/06/13 07:16:19;;;;;;;4.25;2.33;;;34.60;33.80;;;;;;5095102;28;20200;-57
2023/06/13 07:18:46;;;;;;;3.70;2.10;;;35.30;33.40;;;;;;5095369;28;20211;-60
2023/06/13 07:21:13;;;;;;;4.93;2.47;;;35.90;32.90;;;;;;5116345;22;20235;-54
2023/06/13 07:23:40;;;;;;;3.13;2.13;;;36.80;32.00;;;;;;5086545;28;20206;-56
2023/06/13 07:26:08;;;;;;;3.85;2.10;;;36.70;32.30;;;;;;5094506;28;20204;-56
2023/06/13 07:28:35;;;;;;;3.38;1.98;;;36.70;32.00;;;;;;5094772;28;20208;-54
2023/06/13 07:31:02;;;;;;;6.70;3.42;;;36.50;32.30;;;;;;5094778;28;20233;-54
2023/06/13 07:33:29;;;;;;;5.13;2.22;;;36.30;32.80;;;;;;5094725;28;20583;-54
2023/06/13 07:35:57;;;;;;;2.40;2.03;;;37.00;32.20;;;;;;5094352;28;20571;-56
2023/06/13 07:38:25;;;;;;;3.75;2.13;;;37.60;31.70;;;;;;5094392;28;20214;-57
2023/06/13 07:40:52;;;;;;;5.03;2.30;;;38.20;31.30;;;;;;5094286;28;20319;-58
2023/06/13 07:43:20;;;;;;;3.80;2.28;;;38.50;30.60;;;;;;5093993;28;20216;-56
2023/06/13 07:45:47;;;;;;;5.60;2.15;;;38.10;30.90;;;;;;5094213;28;20204;-56
2023/06/13 07:48:15;;;;;;;3.42;2.42;;;37.20;31.90;;;;;;5094803;28;20215;-55
2023/06/13 07:50:42;;;;;;;3.20;2.20;;;36.90;32.10;;;;;;5094681;28;20232;-53
2023/06/13 07:53:09;;;;;;;2.92;2.28;;;37.50;31.90;;;;;;5094408;28;20685;-58
2023/06/13 07:55:36;;;;;;;2.88;2.03;;;37.90;31.10;;;;;;5094274;28;20212;-55
2023/06/13 07:58:03;;;;;;;6.43;2.38;;;37.90;30.60;;;;;;5093967;28;20604;-58
2023/06/13 08:00:31;;;;;;;3.63;2.10;;;37.30;31.00;;;;;;5094325;28;20237;-54
2023/06/13 08:02:58;;;;;;;3.03;2.28;;;36.70;32.00;;;;;;5094183;28;20687;-54
2023/06/13 08:05:26;;;;;;;5.85;2.78;;;36.20;32.20;;;;;;5094252;28;20232;-54
2023/06/13 08:07:53;;;;;;;4.47;2.20;;;35.50;32.90;;;;;;5093473;28;20697;-56
2023/06/13 08:10:21;;;;;;;7.72;2.50;;;35.40;32.60;;;;;;5093704;28;20660;-57
2023/06/13 08:12:48;;;;;;;3.03;2.20;;;34.70;33.30;;;;;;5093898;28;20205;-57
2023/06/13 08:15:15;;;;;;;3.60;2.80;;;34.20;33.70;;;;;;5094071;28;20291;-56
2023/06/13 08:17:43;;;;;;;7.35;2.38;;;33.80;34.20;;;;;;5086782;28;20273;-60
2023/06/13 08:20:11;;;;;;;4.78;2.55;;;33.40;34.60;;;;;;5066207;28;20573;-59
2023/06/13 08:22:38;;;;;;;2.78;2.03;;;33.30;34.90;;;;;;5072572;28;20207;-58
2023/06/13 08:25:07;;;;;;;3.50;2.03;;;33.40;35.00;;;;;;5073644;28;20205;-58
2023/06/13 08:27:35;;;;;;;5.03;2.20;;;33.70;34.60;;;;;;5072943;28;20209;-61
2023/06/13 08:30:03;;;;;;;3.00;2.30;;;33.60;34.90;;;;;;5073162;28;20211;-57
2023/06/13 08:32:31;;;;;;;3.95;2.50;;;33.60;35.20;;;;;;5073402;28;20213;-57
2023/06/13 08:34:59;;;;;;;3.05;2.20;;;34.00;35.80;;;;;;5072795;28;20219;-58
2023/06/13 08:37:26;;;;;;;3.88;2.30;;;34.50;33.80;;;;;;5072766;28;20618;-57
2023/06/13 08:39:53;;;;;;;5.57;2.63;;;34.40;33.70;;;;;;5072942;28;20212;-56
2023/06/13 08:42:20;;;;;;;2.97;2.28;;;33.90;34.40;;;;;;5073029;28;20654;-59
2023/06/13 08:44:48;;;;;;;2.97;2.50;;;33.30;35.50;;;;;;5073072;28;20251;-56
2023/06/13 08:47:17;;;;;;;7.22;2.60;;;32.80;35.80;;;;;;5072780;28;20694;-62
2023/06/13 08:49:46;;;;;;;4.93;2.60;;;32.10;36.80;;;;;;5075037;28;20265;-58
2023/06/13 08:52:15;;;;;;;5.05;2.50;;;31.30;38.10;;;;;;5074547;28;20286;-62
2023/06/13 08:54:44;;;;;;;4.97;2.50;;;30.30;39.30;;;;;;5073493;28;20580;-62
2023/06/13 08:57:15;;;;;;;4.50;2.20;;;29.20;40.40;;;;;;5074127;28;20216;-61
2023/06/13 08:59:44;;;;;;;4.53;2.78;;;28.10;41.90;;;;;;5072945;28;20213;-59
2023/06/13 09:02:14;;;;;;;3.00;2.50;;;27.10;42.70;;;;;;5072292;28;20217;-60
2023/06/13 09:04:43;;;;;;;6.82;2.83;;;26.10;43.20;;;;;;5072685;28;20265;-61
2023/06/13 09:07:11;;;;;;;4.43;2.40;;;25.20;44.30;;;;;;5071885;28;20657;-58
2023/06/13 09:09:40;;;;;;;4.03;2.45;;;24.60;45.50;;;;;;5072754;28;20655;-60
2023/06/13 09:12:09;;;;;;;4.18;2.53;;;24.20;47.00;;;;;;5072085;28;20236;-59
2023/06/13 09:14:36;;;;;;;6.70;2.40;;;24.00;47.10;;;;;;5070800;28;20621;-57
2023/06/13 09:17:03;;;;;;;3.40;2.30;;;23.70;47.50;;;;;;5072253;28;20209;-58
2023/06/13 09:19:30;;;;;;;6.38;2.47;;;23.50;46.50;;;;;;5071879;28;20580;-60
2023/06/13 09:21:57;;;;;;;3.50;2.40;;;23.50;45.30;;;;;;5071907;28;20236;-61
2023/06/13 09:24:25;;;;;;;3.90;2.45;;;23.30;45.70;;;;;;5072011;28;20209;-57
2023/06/13 09:26:53;;;;;;;5.85;2.35;;;23.30;46.40;;;;;;5072089;28;20217;-56
2023/06/13 09:29:20;;;;;;;5.00;2.10;;;23.20;46.70;;;;;;5071205;28;20235;-59
2023/06/13 09:31:47;;;;;;;3.72;2.30;;;23.20;46.50;;;;;;5069858;28;20290;-62
2023/06/13 09:34:15;;;;;;;4.88;2.30;;;23.20;47.00;;;;;;5071480;28;20212;-59
2023/06/13 09:36:42;;;;;;;3.38;2.33;;;23.20;46.80;;;;;;5071284;28;20204;-59
2023/06/13 09:39:09;;;;;;;10.60;2.75;;;23.30;47.30;;;;;;5071812;28;20250;-58
2023/06/13 09:41:36;;;;;;;2.70;2.25;;;23.50;47.10;;;;;;5071598;28;20240;-62
2023/06/13 09:44:05;;;;;;;6.22;2.38;;;23.60;47.10;;;;;;5071720;28;20685;-64
2023/06/13 09:46:35;;;;;;;4.70;2.40;;;23.70;46.60;;;;;;5071294;28;20204;-60
2023/06/13 09:49:02;;;;;;;5.28;2.28;;;23.70;45.50;;;;;;5071397;28;20259;-59
2023/06/13 09:51:31;;;;;;;3.40;2.50;;;23.70;45.50;;;;;;5069770;28;20606;-60
2023/06/13 09:54:00;;;;;;;3.17;2.40;;;23.70;46.00;;;;;;5071848;28;20200;-60
2023/06/13 09:56:27;;;;;;;5.32;2.58;;;23.60;46.30;;;;;;5071369;28;20647;-59
2023/06/13 09:58:53;;;;;;;6.93;2.63;;;23.80;46.10;;;;;;5071641;28;20309;-58
2023/06/13 10:01:22;;;;;;;3.25;2.42;;;23.90;46.40;;;;;;5070973;28;20701;-60
2023/06/13 10:03:48;;;;;;;3.78;2.50;;;23.90;47.20;;;;;;5071602;28;20212;-58
2023/06/13 10:06:15;;;;;;;4.28;2.40;;;24.00;45.80;;;;;;5070454;28;20213;-58
2023/06/13 10:08:42;;;;;;;4.35;2.10;;;24.10;45.30;;;;;;5070706;28;20287;-59
2023/06/13 10:11:11;;;;;;;2.53;2.33;;;24.20;44.20;;;;;;5071760;28;20305;-60
2023/06/13 10:13:50;;;;;;;5.20;2.10;;;24.20;44.40;;;;;;5069652;28;20588;-62
2023/06/13 10:16:22;;;;;;;5.63;2.40;;;24.20;44.40;;;;;;5071191;28;20662;-57
2023/06/13 10:18:53;;;;;;;6.30;2.40;;;24.10;45.00;;;;;;5072214;28;20295;-57
2023/06/13 10:21:21;;;;;;;6.15;2.17;;;24.10;45.00;;;;;;5071365;28;20239;-55
2023/06/13 10:23:51;;;;;;;3.75;2.60;;;24.20;45.30;;;;;;5071432;28;20262;-57
2023/06/13 10:26:28;;;;;;;5.95;2.40;;;24.20;45.40;;;;;;5071512;28;20210;-57
2023/06/13 10:29:17;;;;;;;5.80;2.60;;;24.20;44.70;;;;;;5071608;28;20303;-59
2023/06/13 10:31:57;;;;;;;2.90;2.35;;;24.30;44.80;;;;;;5058752;28;20286;-58
2023/06/13 10:34:46;;;;;;;8.15;2.30;;;24.40;45.20;;;;;;5071291;28;20746;-59
2023/06/13 10:37:44;;;;;;;6.95;2.70;;;24.60;45.20;;;;;;5070928;28;20205;-59
2023/06/13 10:40:30;;;;;;;4.13;2.47;;;24.70;44.90;;;;;;5063488;28;20205;-61
2023/06/13 10:43:05;;;;;;;3.72;2.60;;;24.80;44.30;;;;;;5071591;28;20276;-61
2023/06/13 10:45:32;;;;;;;3.55;2.40;;;25.00;43.90;;;;;;5071470;28;20204;-61
2023/06/13 10:48:00;;;;;;;6.30;2.40;;;25.00;44.20;;;;;;5070478;28;20643;-58
2023/06/13 10:50:27;;;;;;;8.73;2.80;;;24.90;45.20;;;;;;5070272;28;20705;-59
2023/06/13 10:52:55;;;;;;;3.63;2.05;;;25.00;45.20;;;;;;5071148;28;20324;-61
2023/06/13 10:55:27;;;;;;;5.07;2.25;;;25.10;44.70;;;;;;5071068;28;20212;-60
2023/06/13 10:57:56;;;;;;;6.22;2.20;;;24.90;44.90;;;;;;5070804;28;20244;-60
2023/06/13 11:00:28;;;;;;;4.40;2.53;;;24.90;44.80;;;;;;5070630;28;20750;-57
2023/06/13 11:03:00;;;;;;;5.50;2.70;;;24.90;44.30;;;;;;5070286;28;20287;-59
2023/06/13 11:05:27;;;;;;;3.50;2.20;;;24.90;44.20;;;;;;5071072;28;20308;-58
2023/06/13 11:07:55;;;;;;;3.58;2.20;;;24.90;44.80;;;;;;5070848;28;20299;-61
2023/06/13 11:10:23;;;;;;;4.72;2.47;;;25.10;45.10;;;;;;5070508;28;20271;-57
2023/06/13 11:12:53;;;;;;;4.50;2.60;;;25.20;43.90;;;;;;5068832;28;20692;-62
2023/06/13 11:15:22;;;;;;;2.97;2.50;;;25.20;43.40;;;;;;5070418;28;20200;-59
2023/06/13 11:18:26;;;;;;;4.32;2.50;;;25.30;43.50;;;;;;5073946;28;20282;-57
2023/06/13 11:20:55;;;;;;;4.50;2.53;;;25.40;44.10;;;;;;5074419;28;20608;-57
2023/06/13 11:23:23;;;;;;;6.32;2.42;;;25.50;44.60;;;;;;5074523;28;20451;-57
2023/06/13 11:25:52;;;;;;;3.65;2.58;;;25.70;44.00;;;;;;5073686;28;20670;-55
2023/06/13 11:28:19;;;;;;;4.72;2.33;;;25.90;44.30;;;;;;5074401;28;20532;-61
2023/06/13 11:30:48;;;;;;;4.43;2.38;;;26.00;44.40;;;;;;5072421;28;20713;-58
2023/06/13 11:33:17;;;;;;;4.53;2.38;;;26.10;43.70;;;;;;5072340;28;20228;-61
2023/06/13 11:35:49;;;;;;;5.28;2.53;;;26.00;43.50;;;;;;5074424;28;20724;-59
2023/06/13 11:38:21;;;;;;;3.75;2.30;;;26.10;43.70;;;;;;5073837;28;20624;-60
2023/06/13 11:40:55;;;;;;;3.38;2.65;;;26.10;43.90;;;;;;5071878;28;20224;-57
2023/06/13 11:43:24;;;;;;;7.53;2.63;;;26.10;43.50;;;;;;5073951;28;20536;-57
2023/06/13 11:45:51;;;;;;;5.72;2.38;;;26.20;43.80;;;;;;5073247;28;20264;-59
2023/06/13 11:48:22;;;;;;;3.72;2.40;;;26.10;43.70;;;;;;5073979;28;20204;-60
2023/06/13 11:50:49;;;;;;;5.43;2.28;;;26.20;43.90;;;;;;5074038;28;20698;-60
2023/06/13 11:53:18;;;;;;;3.60;2.60;;;26.40;42.70;;;;;;5074178;28;20225;-58
2023/06/13 11:55:47;;;;;;;5.65;2.42;;;26.40;42.30;;;;;;5074064;28;20222;-57
2023/06/13 11:58:14;;;;;;;6.43;2.55;;;26.40;42.30;;;;;;5074088;28;20205;-60
2023/06/13 12:00:50;;;;;;;4.47;2.63;;;26.40;42.30;;;;;;5074348;28;20604;-58
2023/06/13 12:03:22;;;;;;;6.18;2.70;;;26.50;42.70;;;;;;5074656;28;20215;-59
2023/06/13 12:05:50;;;;;;;4.25;2.60;;;26.50;41.80;;;;;;5075110;28;20292;-58
2023/06/13 12:08:18;;;;;;;4.05;2.50;;;26.70;41.80;;;;;;5074228;28;20209;-58
2023/06/13 12:10:47;;;;;;;5.95;2.90;;;26.70;41.20;;;;;;5073805;28;20221;-58
2023/06/13 12:13:16;;;;;;;4.93;2.70;;;26.70;41.20;;;;;;5073450;28;20236;-60
2023/06/13 12:15:43;;;;;;;4.78;3.00;;;26.60;41.60;;;;;;5073093;28;20239;-57
2023/06/13 12:18:09;;;;;;;4.40;2.47;;;26.70;42.20;;;;;;5073147;28;20208;-58
2023/06/13 12:20:48;;;;;;;4.55;2.47;;;26.80;42.10;;;;;;5073267;28;20237;-59
2023/06/13 12:23:16;;;;;;;2.90;2.58;;;26.80;42.00;;;;;;5073335;28;20572;-58
2023/06/13 12:25:44;;;;;;;4.35;2.58;;;27.00;41.70;;;;;;5073043;28;20205;-58
2023/06/13 12:28:12;;;;;;;4.40;2.90;;;27.00;41.90;;;;;;5072402;28;20662;-59
2023/06/13 12:30:41;;;;;;;8.65;3.15;;;26.90;40.60;;;;;;5072752;28;20240;-59
2023/06/13 12:33:08;;;;;;;2.97;2.67;;;26.80;41.00;;;;;;5072899;28;20228;-56
2023/06/13 12:35:35;;;;;;;6.22;2.60;;;26.70;41.30;;;;;;5073071;28;20216;-58
2023/06/13 12:38:03;;;;;;;5.68;2.50;;;26.60;41.60;;;;;;5072760;28;20219;-59
2023/06/13 12:40:35;;;;;;;6.63;2.40;;;26.70;41.50;;;;;;5072797;28;20225;-58
2023/06/13 12:43:03;;;;;;;3.38;2.60;;;26.70;42.00;;;;;;5072754;28;20204;-60
2023/06/13 12:45:31;;;;;;;4.22;2.95;;;26.80;40.60;;;;;;5072736;28;20216;-58
2023/06/13 12:47:58;;;;;;;2.70;2.35;;;26.80;40.60;;;;;;5072653;28;20201;-59
2023/06/13 12:50:27;;;;;;;4.78;2.38;;;26.70;40.10;;;;;;5072696;28;20235;-60
2023/06/13 12:53:02;;;;;;;3.65;2.65;;;26.70;40.50;;;;;;5072671;28;20749;-59